Ana Sayfa
METAR-TAF:

METAR-TAF

Havaalanları :

Erhaç Havalimanı

Malatya, Türkiye

Enlem: 38-26N, Boylam: 038-05E, yükseklik: 862 m

Güncel hava durumu gözlemi

Rapor saat 05:20 UTC de 39 dakika önce yapıldı.
Rüzgar güney/güneybatıdan 5 kt
Sıcaklık 1°C
Nem 80%
Basınç 1026 hPa
Görüş mesafesi 10 km veya daha fazla
1500 m altında bulut yok ve kümülonimbus yok

METAR: LTAT 180520Z 20005KT CAVOK 01/M02 Q1026 NOSIG RMK RWY03 21005KT

Saat: 08:59 (05:59 UTC)

Tahmin

Rapor saat 04:40 UTC de 1 saat ve 19 dakika önce yapıldı.
Ayın 18'si saat 06 UTC'den ayın 19'si saat 06 UTC'ye kadar geçerli Tahmin
Rüzgar değişken yönden 2 kt
Görüş mesafesi 10 km veya daha fazla
1500 m altında bulut yok ve kümülonimbus yok

TAF: LTAT 180440Z 1806/1906 VRB02KT CAVOK

4.000'den fazla havaalanı için hava durumu gözlemleri ve tahminleri (METAR ve TAF raporları).

Kullanılabilir istasyonlar harita üzerinde sarı ve kırmızı noktalarla gösterilir.

İstasyonun adını görmek için fareyi noktanın üzerinde gezdirin.

Sonrasında hava gözlem ve tahminlerini görmek için tıklayın.

Haritayı değiştirmek için: yaklaştırmak için siyah artı işaretli yeşil düğmeye ve uzaklaştırmak için de eksi işaretli düğmeye hızla tıklayın; bitişik haritalar için yeşil okları kullanın.


METAR-TAF: